Time;durP1;ratioP1;P1;durP2;ratioP2;P2;SDS_P1;SDS_P2;PMS_P1;PMS_P2;Temp;Humidity;BMP_temperature;BMP_pressure;BME280_temperature;BME280_humidity;BME280_pressure;Samples;Min_cycle;Max_cycle;Signal;HPM_P1;HPM_P2
2023/07/31 00:00:30;;;;;;;4.97;1.95;;;15.60;99.90;;;15.70;100.00;100019.59;5012794;28;20034;-77
2023/07/31 00:02:56;;;;;;;7.97;2.30;;;15.70;99.90;;;15.77;100.00;100021.00;5014274;28;20101;-77
2023/07/31 00:05:22;;;;;;;8.00;1.85;;;15.70;99.90;;;15.78;100.00;100025.44;5014302;28;20061;-77
2023/07/31 00:07:47;;;;;;;6.40;1.80;;;15.70;99.90;;;15.79;100.00;100023.50;5015809;28;20034;-77
2023/07/31 00:10:13;;;;;;;4.88;1.85;;;15.80;99.90;;;15.77;100.00;100022.94;5015270;28;20132;-77
2023/07/31 00:12:43;;;;;;;8.15;2.00;;;15.70;99.90;;;15.68;100.00;100006.09;5016027;28;20125;-76
2023/07/31 00:15:10;;;;;;;4.13;1.70;;;15.70;99.90;;;15.68;100.00;99984.09;5011768;28;20038;-78
2023/07/31 00:17:36;;;;;;;6.13;2.05;;;15.70;99.90;;;15.70;100.00;99986.59;5011636;28;20124;-77
2023/07/31 00:20:03;;;;;;;8.82;2.13;;;15.60;99.90;;;15.66;100.00;99981.66;5011624;28;20034;-77
2023/07/31 00:22:29;;;;;;;5.32;2.10;;;15.60;99.90;;;15.62;100.00;99975.00;5009956;28;20088;-77
2023/07/31 00:24:56;;;;;;;4.55;2.10;;;15.50;99.90;;;15.43;100.00;99955.38;5015164;28;20033;-77
2023/07/31 00:27:22;;;;;;;6.70;2.50;;;15.50;99.90;;;15.40;100.00;99939.44;5030426;28;20041;-77
2023/07/31 00:29:50;;;;;;;8.73;2.45;;;15.40;99.90;;;15.39;100.00;99922.13;5029988;28;20029;-77
2023/07/31 00:32:15;;;;;;;5.80;2.22;;;15.40;99.90;;;15.41;100.00;99927.34;5022463;28;20485;-77
2023/07/31 00:34:41;;;;;;;5.38;2.25;;;15.30;99.90;;;15.39;100.00;99916.63;5019042;28;20022;-77
2023/07/31 00:37:07;;;;;;;7.03;2.30;;;15.30;99.90;;;15.33;100.00;99906.69;5015701;28;20046;-77
2023/07/31 00:39:35;;;;;;;5.05;2.30;;;15.20;99.90;;;15.41;100.00;99907.28;5019142;28;20092;-77
2023/07/31 00:42:00;;;;;;;;;;;15.20;99.90;;;15.39;100.00;99896.56;5008157;28;20113;-77
2023/07/31 00:44:26;;;;;;;5.68;2.17;;;15.20;99.90;;;15.39;100.00;99889.16;5022532;28;20004;-77
2023/07/31 00:46:54;;;;;;;7.10;2.80;;;15.20;99.90;;;15.41;100.00;99868.81;5020328;28;20113;-77
2023/07/31 00:49:22;;;;;;;6.45;2.53;;;15.20;99.90;;;15.40;100.00;99865.22;5018632;28;20123;-77
2023/07/31 00:51:49;;;;;;;5.85;2.80;;;15.20;99.90;;;15.40;100.00;99862.50;5014767;28;20042;-77
2023/07/31 00:54:14;;;;;;;6.05;2.83;;;15.20;99.90;;;15.35;100.00;99844.03;5017812;28;20064;-77
2023/07/31 00:56:44;;;;;;;4.63;2.50;;;15.10;99.90;;;15.33;100.00;99835.25;5020416;28;20045;-77
2023/07/31 00:59:10;;;;;;;7.55;2.80;;;15.20;99.90;;;15.31;100.00;99820.94;5024897;28;20044;-77
2023/07/31 01:01:36;;;;;;;7.72;2.67;;;15.10;99.90;;;15.34;100.00;99825.09;5016226;28;20042;-77
2023/07/31 01:04:03;;;;;;;6.55;3.10;;;15.10;99.90;;;15.29;100.00;99816.84;5013517;28;20459;-77
2023/07/31 01:07:14;;;;;;;7.30;2.80;;;15.10;99.90;;;15.17;100.00;99803.31;5014809;28;20462;-78
2023/07/31 01:09:47;;;;;;;6.32;2.75;;;15.10;99.90;;;15.13;100.00;99778.31;5010088;28;20053;-77
2023/07/31 01:12:16;;;;;;;4.05;2.67;;;15.00;99.90;;;15.03;100.00;99746.13;5014930;28;20080;-77
2023/07/31 01:15:05;;;;;;;11.05;3.25;;;15.00;99.90;;;15.00;100.00;99721.94;5018891;28;20662;-77
2023/07/31 01:17:31;;;;;;;6.38;3.00;;;15.00;99.90;;;15.08;100.00;99726.91;5027206;28;20224;-77
2023/07/31 01:20:03;;;;;;;4.82;2.90;;;14.90;99.90;;;15.04;100.00;99703.81;5014648;28;20121;-77
2023/07/31 01:23:00;;;;;;;7.20;2.92;;;14.90;99.90;;;15.05;100.00;99697.22;5014431;28;20026;-77
2023/07/31 01:25:53;;;;;;;7.15;3.30;;;14.90;99.90;;;15.06;100.00;99690.66;5009235;28;20046;-77
2023/07/31 01:28:35;;;;;;;4.85;2.60;;;14.90;99.90;;;15.05;100.00;99671.72;5017853;28;20119;-77
2023/07/31 01:31:07;;;;;;;6.43;2.95;;;14.90;99.90;;;15.01;100.00;99662.34;5020745;28;20048;-77
2023/07/31 01:33:34;;;;;;;6.32;2.72;;;14.90;99.90;;;14.98;100.00;99651.88;5029770;28;20086;-77
2023/07/31 01:36:01;;;;;;;4.30;2.30;;;14.90;99.90;;;15.02;100.00;99642.84;5040933;28;20034;-77
2023/07/31 01:38:26;;;;;;;7.10;2.72;;;14.90;99.90;;;14.97;100.00;99629.13;5017115;28;20034;-77
2023/07/31 01:40:53;;;;;;;7.95;3.15;;;14.90;99.90;;;15.00;100.00;99636.81;5014204;28;20100;-77
2023/07/31 01:43:19;;;;;;;7.55;2.65;;;14.90;99.90;;;15.00;100.00;99628.56;5017599;28;20515;-78
2023/07/31 01:45:45;;;;;;;5.65;2.50;;;14.90;99.90;;;15.01;100.00;99621.16;5014350;28;20116;-78
2023/07/31 01:48:11;;;;;;;6.25;2.60;;;14.90;99.90;;;15.02;100.00;99609.09;5017868;28;20040;-77
2023/07/31 01:50:36;;;;;;;7.43;2.33;;;14.90;99.90;;;15.00;100.00;99598.34;5016783;28;20041;-78
2023/07/31 01:53:02;;;;;;;3.97;2.50;;;14.90;99.90;;;15.03;100.00;99597.81;5017016;28;20053;-77
2023/07/31 01:55:28;;;;;;;5.40;2.28;;;14.90;99.90;;;14.98;100.00;99589.56;5017271;28;20033;-78
2023/07/31 01:57:54;;;;;;;5.22;2.28;;;14.90;99.90;;;15.06;100.00;99577.22;5013800;28;20026;-78
2023/07/31 02:00:19;;;;;;;8.35;2.20;;;14.90;99.90;;;15.06;100.00;99583.53;5020384;28;20038;-78
2023/07/31 02:02:45;;;;;;;4.72;2.10;;;14.90;99.90;;;15.01;100.00;99583.53;5021008;28;20394;-78
2023/07/31 02:05:11;;;;;;;4.75;2.15;;;14.90;99.90;;;15.06;100.00;99577.22;5013800;28;20056;-77
2023/07/31 02:07:37;;;;;;;3.72;1.83;;;14.90;99.90;;;15.06;100.00;99571.72;5013749;28;20327;-77
2023/07/31 02:10:03;;;;;;;4.28;1.80;;;14.90;99.90;;;15.08;100.00;99567.59;5015263;28;20048;-77
2023/07/31 02:12:31;;;;;;;4.68;1.75;;;15.00;99.90;;;15.10;100.00;99567.34;5023436;28;20045;-77
2023/07/31 02:14:57;;;;;;;6.35;1.80;;;14.90;99.90;;;15.13;100.00;99560.47;5017925;28;20068;-77
2023/07/31 02:17:24;;;;;;;3.78;2.10;;;14.90;99.90;;;15.08;100.00;99559.34;5022031;28;20049;-77
2023/07/31 02:19:50;;;;;;;3.50;1.60;;;14.90;99.90;;;15.05;100.00;99548.91;5017180;28;20092;-78
2023/07/31 02:22:16;;;;;;;3.90;1.55;;;15.00;99.90;;;15.05;100.00;99551.66;5018991;28;20038;-78
2023/07/31 02:24:41;;;;;;;3.90;1.48;;;14.90;99.90;;;15.06;100.00;99544.28;5013526;28;20077;-77
2023/07/31 02:27:07;;;;;;;3.50;1.48;;;14.90;99.90;;;15.00;100.00;99539.88;5013448;28;20064;-78
2023/07/31 02:29:33;;;;;;;2.92;1.40;;;15.00;99.90;;;15.04;100.00;99530.78;5030082;28;20033;-78
2023/07/31 02:31:58;;;;;;;4.03;1.52;;;14.90;99.90;;;15.07;100.00;99522.00;5020589;28;20045;-79
2023/07/31 02:34:25;;;;;;;2.42;1.13;;;14.90;99.90;;;15.03;100.00;99518.16;5023525;28;20034;-78
2023/07/31 02:36:50;;;;;;;2.03;1.08;;;14.90;99.90;;;15.05;100.00;99504.16;5012780;28;20034;-78
2023/07/31 02:39:17;;;;;;;3.95;1.25;;;14.90;99.90;;;15.18;100.00;99505.53;5018537;28;20045;-78
2023/07/31 02:41:43;;;;;;;4.93;1.40;;;14.90;99.90;;;15.24;100.00;99509.91;5016717;28;20041;-79
2023/07/31 02:44:10;;;;;;;3.35;1.35;;;14.90;99.90;;;15.23;100.00;99509.09;5016932;28;20025;-78
2023/07/31 02:46:36;;;;;;;4.27;1.20;;;15.00;99.90;;;15.28;100.00;99510.22;5015403;28;20520;-79
2023/07/31 02:49:02;;;;;;;3.85;1.17;;;15.00;99.90;;;15.20;100.00;99511.56;5025261;28;20040;-79
2023/07/31 02:51:27;;;;;;;2.72;1.23;;;15.00;99.90;;;15.27;100.00;99516.81;5011189;28;20120;-79
2023/07/31 02:53:53;;;;;;;2.95;1.38;;;15.00;99.90;;;15.30;100.00;99513.50;5012715;28;20509;-78
2023/07/31 02:56:19;;;;;;;2.85;1.25;;;15.00;99.90;;;15.29;100.00;99514.59;5014849;28;20437;-78
2023/07/31 02:58:44;;;;;;;3.60;1.13;;;15.00;99.90;;;15.30;100.00;99516.25;5017234;28;20083;-77
2023/07/31 03:01:10;;;;;;;2.63;1.40;;;15.00;99.90;;;15.29;100.00;99517.34;5003445;28;20049;-78
2023/07/31 03:03:36;;;;;;;2.03;1.20;;;15.00;99.90;;;15.26;100.00;99513.22;5013007;28;20061;-77
2023/07/31 03:06:02;;;;;;;3.15;1.38;;;15.00;99.90;;;15.24;100.00;99507.97;5026883;28;20087;-79
2023/07/31 03:08:27;;;;;;;4.70;1.50;;;15.00;99.90;;;15.29;100.00;99498.94;5019391;28;20049;-79
2023/07/31 03:10:53;;;;;;;3.28;1.33;;;15.00;99.90;;;15.29;100.00;99498.94;5016332;28;20042;-79
2023/07/31 03:13:19;;;;;;;3.47;1.38;;;15.00;99.90;;;15.26;100.00;99485.75;5023604;28;20045;-78
2023/07/31 03:15:44;;;;;;;3.15;1.25;;;15.00;99.90;;;15.32;100.00;99481.88;5025188;28;20033;-78
2023/07/31 03:18:10;;;;;;;2.95;1.30;;;15.00;99.90;;;15.33;100.00;99491.78;5018302;28;20501;-78
2023/07/31 03:20:36;;;;;;;3.03;1.38;;;15.00;99.90;;;15.34;100.00;99485.16;5020714;28;20037;-78
2023/07/31 03:23:01;;;;;;;2.80;1.48;;;15.00;99.90;;;15.32;100.00;99487.38;5011969;28;20485;-78
2023/07/31 03:25:27;;;;;;;3.75;1.60;;;15.00;99.90;;;15.31;100.00;99487.66;5015122;28;20034;-77
2023/07/31 03:27:53;;;;;;;3.13;1.45;;;15.00;99.90;;;15.24;100.00;99474.22;5016076;28;20025;-77
2023/07/31 03:30:19;;;;;;;3.33;1.50;;;15.00;99.90;;;15.31;100.00;99477.50;5018751;28;20037;-77
2023/07/31 03:32:45;;;;;;;3.60;1.42;;;15.00;99.90;;;15.20;100.00;99471.19;5004692;28;20037;-77
2023/07/31 03:35:11;;;;;;;4.88;1.85;;;15.00;99.90;;;15.27;100.00;99479.16;5016777;28;20440;-78
2023/07/31 03:37:37;;;;;;;3.92;1.70;;;15.00;99.90;;;15.18;100.00;99476.13;5016614;28;20041;-78
2023/07/31 03:40:04;;;;;;;2.85;1.63;;;15.00;99.90;;;15.15;100.00;99460.22;5018076;28;20057;-77
2023/07/31 03:42:30;;;;;;;2.80;1.70;;;15.00;99.90;;;15.21;100.00;99453.59;5015600;28;20492;-77
2023/07/31 03:44:56;;;;;;;4.60;1.90;;;15.00;99.90;;;15.24;100.00;99447.53;5017109;28;20099;-77
2023/07/31 03:47:22;;;;;;;3.13;1.70;;;15.00;99.90;;;15.24;100.00;99444.00;5018804;28;20041;-77
2023/07/31 03:49:48;;;;;;;4.80;1.70;;;15.00;99.90;;;15.25;100.00;99448.38;5017393;28;20037;-77
2023/07/31 03:52:14;;;;;;;4.43;1.80;;;15.00;99.90;;;15.23;100.00;99439.59;5010751;28;20602;-77
2023/07/31 03:54:40;;;;;;;4.47;2.00;;;15.00;99.90;;;15.20;100.00;99435.47;5018282;28;20108;-78
2023/07/31 03:57:06;;;;;;;5.75;2.10;;;15.00;99.90;;;15.21;100.00;99431.63;5021998;28;20041;-77
2023/07/31 03:59:31;;;;;;;3.78;2.10;;;15.00;99.90;;;15.19;100.00;99433.81;5014547;28;20025;-77
2023/07/31 04:01:57;;;;;;;4.45;1.90;;;15.00;99.90;;;15.15;100.00;99431.94;5019226;28;20095;-80
2023/07/31 04:04:23;;;;;;;3.55;1.77;;;15.00;99.90;;;15.17;100.00;99430.53;5019232;28;20394;-79
2023/07/31 04:06:48;;;;;;;2.20;1.52;;;15.00;99.90;;;15.13;100.00;99434.13;5022642;28;20044;-80
2023/07/31 04:09:14;;;;;;;3.70;2.03;;;15.00;99.90;;;15.02;100.00;99425.88;5013669;28;20069;-84
2023/07/31 04:11:40;;;;;;;3.40;1.90;;;14.90;99.90;;;15.02;100.00;99425.06;5012861;28;20038;-77
2023/07/31 04:14:06;;;;;;;7.53;2.03;;;14.90;99.90;;;15.09;100.00;99422.88;5012222;28;20037;-76
2023/07/31 04:16:31;;;;;;;3.72;1.90;;;14.90;99.90;;;14.98;100.00;99422.06;5018220;28;20088;-77
2023/07/31 04:18:57;;;;;;;7.18;2.00;;;14.90;99.90;;;14.96;100.00;99427.81;5026605;28;20045;-77
2023/07/31 04:21:23;;;;;;;3.88;1.90;;;14.80;99.90;;;14.96;100.00;99427.81;5013302;28;20344;-76
2023/07/31 04:23:49;;;;;;;5.95;2.10;;;14.80;99.90;;;14.97;100.00;99425.91;5016795;28;20033;-76
2023/07/31 04:26:14;;;;;;;4.22;1.90;;;14.80;99.90;;;14.96;100.00;99422.31;5018263;28;20041;-76
2023/07/31 04:28:40;;;;;;;5.30;2.00;;;14.80;99.90;;;14.99;100.00;99425.63;5018483;28;20046;-76
2023/07/31 04:31:06;;;;;;;4.53;1.92;;;14.80;99.90;;;15.01;100.00;99427.00;5012089;28;20048;-76
2023/07/31 04:33:32;;;;;;;4.00;1.88;;;14.70;99.90;;;15.06;100.00;99424.22;5019600;28;20232;-76
2023/07/31 04:35:59;;;;;;;3.33;2.08;;;14.80;99.90;;;15.06;100.00;99426.97;5016260;28;20030;-76
2023/07/31 04:38:25;;;;;;;3.47;1.95;;;14.80;99.90;;;15.08;100.00;99427.53;5012178;28;20042;-76
2023/07/31 04:40:50;;;;;;;3.53;2.10;;;14.80;99.90;;;15.06;100.00;99428.91;5012668;28;20041;-76
2023/07/31 04:43:16;;;;;;;3.75;2.00;;;14.90;99.90;;;15.13;100.00;99426.69;5013285;28;20037;-77
2023/07/31 04:45:49;;;;;;;3.92;2.25;;;14.90;99.90;;;15.02;100.00;99390.19;5020786;28;20466;-76
2023/07/31 04:48:15;;;;;;;4.53;1.88;;;14.90;99.90;;;15.08;100.00;99404.75;5020411;28;20037;-77
2023/07/31 04:50:41;;;;;;;4.35;2.13;;;14.90;99.90;;;15.17;100.00;99416.00;5015255;28;20030;-77
2023/07/31 04:53:07;;;;;;;6.45;2.22;;;15.00;99.90;;;15.14;100.00;99409.13;5012371;28;20516;-78
2023/07/31 04:55:32;;;;;;;4.22;1.70;;;15.00;99.90;;;15.12;100.00;99405.00;5004008;28;20117;-77
2023/07/31 04:57:59;;;;;;;4.68;1.77;;;15.00;99.90;;;15.12;100.00;99400.34;5018449;28;20044;-78
2023/07/31 05:00:25;;;;;;;4.38;1.48;;;15.00;99.90;;;15.03;100.00;99394.56;5026919;28;20497;-78
2023/07/31 05:02:51;;;;;;;4.18;1.50;;;14.90;99.90;;;14.88;100.00;99384.44;5020828;28;20034;-77
2023/07/31 05:05:16;;;;;;;3.30;1.23;;;14.90;99.90;;;14.94;100.00;99364.09;5022039;28;20061;-77
2023/07/31 05:07:42;;;;;;;3.83;1.30;;;14.90;99.90;;;14.87;100.00;99360.03;5021403;28;20451;-78
2023/07/31 05:10:08;;;;;;;2.92;1.30;;;14.90;99.90;;;14.88;100.00;99345.19;5022350;28;20033;-77
2023/07/31 05:12:34;;;;;;;2.58;1.10;;;14.90;99.90;;;15.04;100.00;99359.72;5021938;28;20038;-76
2023/07/31 05:15:00;;;;;;;3.88;1.20;;;14.90;99.90;;;15.10;100.00;99372.31;5015819;28;20065;-76
2023/07/31 05:17:26;;;;;;;4.93;1.35;;;14.80;99.90;;;15.00;100.00;99362.19;5018843;28;20050;-79
2023/07/31 05:19:51;;;;;;;2.08;1.35;;;14.90;99.90;;;15.13;100.00;99363.53;5021200;28;20026;-78
2023/07/31 05:22:17;;;;;;;2.65;1.05;;;14.90;99.90;;;15.10;100.00;99356.66;5018925;28;20041;-77
2023/07/31 05:24:43;;;;;;;3.40;1.30;;;14.90;99.90;;;15.13;100.00;99363.53;5018625;28;20045;-77
2023/07/31 05:27:09;;;;;;;2.85;1.33;;;14.90;99.90;;;15.03;100.00;99356.13;5034195;28;20105;-78
2023/07/31 05:29:35;;;;;;;2.47;1.20;;;14.90;99.90;;;15.18;100.00;99381.94;5041335;28;20046;-78
2023/07/31 05:32:01;;;;;;;3.42;1.30;;;14.90;99.90;;;15.17;100.00;99394.00;5040714;28;20044;-78
2023/07/31 05:34:27;;;;;;;3.17;1.33;;;14.90;99.90;;;15.23;100.00;99395.66;5045983;28;20091;-77
2023/07/31 05:36:53;;;;;;;5.82;2.30;;;14.90;99.90;;;15.15;100.00;99377.00;5030729;28;20033;-81
2023/07/31 05:39:19;;;;;;;3.50;1.73;;;14.90;99.90;;;15.18;100.00;99384.69;5022351;28;20042;-79
2023/07/31 05:41:47;;;;;;;4.75;2.00;;;15.00;99.90;;;15.31;100.00;99394.25;5017831;28;20088;-78
2023/07/31 05:44:12;;;;;;;7.78;2.90;;;15.00;99.90;;;15.33;100.00;99395.59;5021766;28;21157;-78
2023/07/31 05:46:38;;;;;;;8.93;3.95;;;15.00;99.90;;;15.38;100.00;99387.38;5020484;28;20034;-78
2023/07/31 05:49:04;;;;;;;11.93;5.18;;;15.10;99.90;;;15.53;100.00;99391.16;5015323;28;20042;-79
2023/07/31 05:51:30;;;;;;;9.85;4.35;;;15.10;99.90;;;15.29;100.00;99377.22;5004956;28;20041;-76
2023/07/31 05:53:55;;;;;;;7.18;4.78;;;15.20;99.90;;;15.55;100.00;99380.69;5019415;28;20029;-77
2023/07/31 05:56:21;;;;;;;12.07;5.25;;;15.20;99.90;;;15.38;100.00;99378.28;5018553;28;20030;-76
2023/07/31 05:58:48;;;;;;;13.48;6.22;;;15.30;99.90;;;15.67;100.00;99375.72;5021520;28;20409;-78
2023/07/31 06:01:16;;;;;;;12.98;6.78;;;15.30;99.90;;;15.66;100.00;99364.97;5018287;28;20042;-77
2023/07/31 06:03:42;;;;;;;22.25;8.90;;;15.40;99.90;;;15.74;100.00;99377.31;5012588;28;20050;-77
2023/07/31 06:06:08;;;;;;;18.65;7.70;;;15.30;99.90;;;15.76;100.00;99375.91;5021715;28;20030;-76
2023/07/31 06:08:34;;;;;;;16.42;8.68;;;15.40;99.90;;;15.75;100.00;99367.97;5012480;28;20121;-81
2023/07/31 06:10:59;;;;;;;22.73;10.20;;;15.40;99.90;;;15.76;100.00;99375.91;5015173;28;20060;-77
2023/07/31 06:13:25;;;;;;;18.65;9.63;;;15.40;99.90;;;15.87;100.00;99381.38;5019496;28;20718;-76
2023/07/31 06:15:51;;;;;;;17.60;10.73;;;15.50;99.90;;;15.80;100.00;99376.19;5017898;28;20042;-76
2023/07/31 06:18:17;;;;;;;20.45;11.82;;;15.50;99.90;;;15.72;100.00;99365.78;5020426;28;20064;-77
2023/07/31 06:20:42;;;;;;;20.40;10.68;;;15.60;99.90;;;15.98;100.00;99346.44;5019770;28;20034;-77
2023/07/31 06:23:08;;;;;;;22.15;11.30;;;15.70;99.90;;;15.97;100.00;99342.84;5017625;28;20128;-76
2023/07/31 06:25:34;;;;;;;21.58;11.48;;;15.70;99.90;;;16.17;100.00;99341.06;5033284;28;20749;-77
2023/07/31 06:27:59;;;;;;;18.98;10.15;;;15.80;99.90;;;16.16;100.00;99340.22;5015944;28;20033;-77
2023/07/31 06:30:25;;;;;;;20.30;10.48;;;15.90;99.90;;;15.88;100.00;99344.53;5018111;28;20034;-76
2023/07/31 06:32:51;;;;;;;17.42;9.90;;;15.80;99.90;;;15.98;100.00;99354.69;5011708;28;20029;-77
2023/07/31 06:35:17;;;;;;;18.88;9.73;;;15.80;99.90;;;15.83;100.00;99342.63;5019888;28;20042;-77
2023/07/31 06:37:44;;;;;;;15.00;9.32;;;15.80;99.90;;;15.87;100.00;99349.19;5014790;28;20034;-76
2023/07/31 06:40:10;;;;;;;16.52;8.80;;;15.80;99.90;;;15.91;100.00;99358.56;5024765;28;20041;-77
2023/07/31 06:42:36;;;;;;;16.73;9.43;;;15.70;99.90;;;15.85;100.00;99345.91;5011884;28;20046;-76
2023/07/31 06:45:02;;;;;;;17.08;9.75;;;15.70;99.90;;;15.98;100.00;99360.19;5020819;28;20075;-79
2023/07/31 06:47:28;;;;;;;15.90;9.30;;;15.70;99.90;;;15.89;100.00;99362.69;5011849;28;20057;-81
2023/07/31 06:49:55;;;;;;;18.75;10.30;;;15.70;99.90;;;15.86;100.00;99363.25;5011001;28;20049;-81
2023/07/31 06:52:21;;;;;;;15.85;9.90;;;15.70;99.90;;;15.80;100.00;99379.78;5011183;28;20095;-80
2023/07/31 06:55:17;;;;;;;15.57;9.63;;;15.60;99.90;;;15.90;100.00;99373.41;5014482;28;20034;-77
2023/07/31 06:57:43;;;;;;;17.17;9.63;;;15.60;99.90;;;15.86;100.00;99369.53;5017765;28;20136;-77
2023/07/31 07:00:10;;;;;;;19.98;10.55;;;15.60;99.90;;;15.91;100.00;99355.00;5015011;28;20041;-76
2023/07/31 07:02:35;;;;;;;17.98;10.68;;;15.60;99.90;;;16.00;100.00;99375.28;5019391;28;20070;-77
2023/07/31 07:05:01;;;;;;;21.08;11.88;;;15.60;99.90;;;15.99;100.00;99390.13;5027908;28;20029;-76
2023/07/31 07:07:28;;;;;;;21.25;12.10;;;15.60;99.90;;;15.90;100.00;99386.34;5027430;28;20045;-76
2023/07/31 07:09:53;;;;;;;23.63;12.63;;;15.60;99.90;;;15.87;100.00;99376.69;5011526;28;20049;-77
2023/07/31 07:12:19;;;;;;;28.02;14.40;;;15.60;99.90;;;16.01;100.00;99396.16;5019561;28;20042;-76
2023/07/31 07:14:47;;;;;;;26.08;14.30;;;15.60;99.90;;;15.77;100.00;99377.56;5017849;28;20486;-80
2023/07/31 07:17:13;;;;;;;26.55;15.23;;;15.60;99.90;;;15.85;100.00;99356.91;5013573;28;20124;-77
2023/07/31 07:19:42;;;;;;;24.70;15.15;;;15.60;99.90;;;15.94;100.00;99341.50;5016976;28;20037;-74
2023/07/31 07:22:08;;;;;;;25.23;14.93;;;15.70;99.90;;;15.96;100.00;99341.19;5014855;28;20065;-76
2023/07/31 07:24:33;;;;;;;26.63;16.42;;;15.70;99.90;;;15.80;100.00;99329.44;5010746;28;20550;-76
2023/07/31 07:26:59;;;;;;;28.52;16.33;;;15.70;99.90;;;16.09;100.00;99342.50;5020185;28;20516;-76
2023/07/31 07:29:25;;;;;;;31.65;17.30;;;15.70;99.90;;;15.91;100.00;99350.31;5015984;28;20038;-76
2023/07/31 07:31:51;;;;;;;29.85;17.08;;;15.70;99.90;;;15.91;100.00;99347.56;5017630;28;20048;-77
2023/07/31 07:34:16;;;;;;;32.47;17.80;;;15.70;99.90;;;16.02;100.00;99370.31;5005382;28;20068;-76
2023/07/31 07:36:42;;;;;;;32.20;17.70;;;15.80;99.90;;;16.17;100.00;99369.38;5021403;28;20064;-76
2023/07/31 07:39:11;;;;;;;31.77;18.60;;;15.80;99.90;;;16.30;100.00;99362.41;5013042;28;20042;-77
2023/07/31 07:41:36;;;;;;;35.60;19.30;;;15.90;99.90;;;16.35;100.00;99369.81;5013140;28;20043;-77
2023/07/31 07:44:02;;;;;;;33.65;17.90;;;16.00;99.90;;;16.33;100.00;99361.03;5013341;28;20041;-76
2023/07/31 07:46:28;;;;;;;34.15;19.77;;;16.10;99.90;;;16.84;100.00;99368.03;5017046;28;20044;-75
2023/07/31 07:48:53;;;;;;;34.80;19.23;;;16.40;99.90;;;16.97;100.00;99394.06;5024011;28;20072;-75
2023/07/31 07:51:19;;;;;;;25.60;17.25;;;16.60;99.90;;;16.91;100.00;99434.63;5020247;28;20052;-75
2023/07/31 07:53:45;;;;;;;24.67;16.15;;;16.70;99.90;;;17.11;100.00;99458.44;5017145;28;20042;-75
2023/07/31 07:56:10;;;;;;;27.50;16.38;;;16.80;99.90;;;17.30;100.00;99471.50;5016728;28;20045;-75
2023/07/31 07:58:36;;;;;;;21.52;15.25;;;17.00;99.90;;;17.35;100.00;99501.78;5012792;28;20079;-76
2023/07/31 08:01:02;;;;;;;22.77;14.10;;;17.00;99.90;;;17.47;100.00;99526.19;5023739;28;20044;-75
2023/07/31 08:03:28;;;;;;;17.75;12.90;;;17.20;99.90;;;17.28;100.00;99512.31;5024371;28;20048;-75
2023/07/31 08:05:59;;;;;;;18.52;11.85;;;17.20;99.90;;;17.64;100.00;99552.53;5017471;28;20038;-73
2023/07/31 08:08:24;;;;;;;20.35;12.40;;;17.40;99.90;;;17.72;100.00;99581.38;5021225;28;20037;-74
2023/07/31 08:10:50;;;;;;;18.00;10.52;;;17.50;99.90;;;17.74;100.00;99623.28;5018337;28;20037;-74
2023/07/31 08:13:16;;;;;;;15.85;9.32;;;17.50;99.90;;;17.93;100.00;99673.06;5021519;28;20041;-76
2023/07/31 08:15:42;;;;;;;14.13;9.07;;;17.60;99.90;;;17.54;100.00;99689.34;5011441;28;20084;-75
2023/07/31 08:18:09;;;;;;;15.25;9.02;;;17.50;99.90;;;17.53;100.00;99690.47;5023926;28;20049;-76
2023/07/31 08:20:35;;;;;;;14.27;8.25;;;17.50;99.90;;;17.64;100.00;99674.66;5018983;28;20393;-76
2023/07/31 08:23:01;;;;;;;13.65;8.40;;;17.50;99.90;;;17.59;100.00;99671.13;5012029;28;20088;-75
2023/07/31 08:25:27;;;;;;;16.70;8.18;;;17.40;99.90;;;17.78;100.00;99690.56;5017696;28;20045;-76
2023/07/31 08:27:52;;;;;;;12.85;7.32;;;17.50;99.90;;;17.39;100.00;99704.06;5012223;28;20450;-76
2023/07/31 08:30:19;;;;;;;16.77;8.27;;;17.50;99.90;;;17.67;100.00;99718.22;5023953;28;20037;-78
2023/07/31 08:32:45;;;;;;;11.85;6.40;;;17.50;99.90;;;17.59;100.00;99713.31;5029018;28;20038;-77
2023/07/31 08:35:11;;;;;;;13.35;6.45;;;17.50;99.90;;;17.42;100.00;99716.47;5020204;28;20045;-76
2023/07/31 08:37:38;;;;;;;15.00;6.90;;;17.40;99.90;;;17.29;100.00;99741.88;5019062;28;20085;-77
2023/07/31 08:40:05;;;;;;;12.23;6.47;;;17.30;99.90;;;17.09;100.00;99727.94;5011932;28;20088;-77
2023/07/31 08:42:31;;;;;;;14.55;6.88;;;17.10;99.90;;;17.32;100.00;99717.34;5012877;28;20045;-76
2023/07/31 08:44:59;;;;;;;14.60;7.38;;;17.20;99.90;;;17.76;100.00;99714.81;5018868;28;20076;-77
2023/07/31 08:47:28;;;;;;;14.73;6.47;;;17.30;99.90;;;17.39;100.00;99734.38;5013794;28;20049;-77
2023/07/31 08:49:55;;;;;;;12.82;6.68;;;17.30;99.90;;;17.50;100.00;99717.78;5021484;28;20441;-77
2023/07/31 08:52:21;;;;;;;17.38;7.25;;;17.30;99.90;;;17.54;100.00;99730.72;5016821;28;20038;-74
2023/07/31 08:54:47;;;;;;;13.77;7.20;;;17.20;99.90;;;17.06;100.00;99728.50;5022243;28;20042;-75
2023/07/31 08:57:14;;;;;;;13.13;6.43;;;17.00;99.90;;;17.08;100.00;99729.03;5023260;28;20034;-77
2023/07/31 08:59:42;;;;;;;16.05;7.13;;;17.00;99.90;;;16.98;100.00;99701.56;5021241;28;20033;-77
2023/07/31 09:02:08;;;;;;;12.57;7.20;;;16.90;99.90;;;17.18;100.00;99686.84;5016135;28;20048;-75
2023/07/31 09:04:34;;;;;;;14.15;6.90;;;16.90;99.90;;;17.24;100.00;99693.16;5021832;28;20041;-75
2023/07/31 09:07:04;;;;;;;13.25;6.97;;;17.00;99.90;;;17.39;100.00;99693.03;5015618;28;20037;-75
2023/07/31 09:09:31;;;;;;;16.30;7.15;;;17.10;99.90;;;18.04;100.00;99695.91;5015759;28;20267;-75
2023/07/31 09:11:58;;;;;;;13.77;7.13;;;17.50;99.90;;;18.04;100.00;99732.56;5015144;28;20034;-76
2023/07/31 09:14:27;;;;;;;11.50;6.80;;;17.80;99.90;;;17.97;100.00;99749.44;5024603;28;20045;-76
2023/07/31 09:16:59;;;;;;;15.93;7.68;;;17.90;99.90;;;17.86;100.00;99747.88;5030346;28;20037;-76
2023/07/31 09:19:36;;;;;;;13.48;6.72;;;17.70;99.90;;;17.78;100.00;99748.50;5025222;28;20053;-76
2023/07/31 09:22:03;;;;;;;14.93;7.18;;;17.60;99.90;;;17.88;100.00;99729.09;5022858;28;20088;-77
2023/07/31 09:24:32;;;;;;;13.18;6.90;;;17.60;99.90;;;17.73;100.00;99727.28;5032580;28;20193;-76
2023/07/31 09:27:00;;;;;;;10.93;6.15;;;17.50;99.90;;;18.00;100.00;99720.44;5019951;28;20045;-76
2023/07/31 09:29:29;;;;;;;12.02;6.32;;;17.60;99.90;;;18.15;100.00;99743.50;5018783;28;20030;-77
2023/07/31 09:31:55;;;;;;;11.82;5.80;;;17.70;99.90;;;18.01;100.00;99746.09;5021370;28;20029;-77
2023/07/31 09:34:39;;;;;;;12.13;6.13;;;17.90;99.90;;;18.17;100.00;99746.81;5028088;28;20075;-76
2023/07/31 09:37:05;;;;;;;11.60;5.60;;;18.00;99.90;;;18.28;100.00;99758.56;5024365;28;20030;-77
2023/07/31 09:39:31;;;;;;;9.70;4.47;;;18.10;99.90;;;18.43;100.00;99758.44;5021607;28;20034;-77
2023/07/31 09:41:57;;;;;;;11.45;4.90;;;18.10;99.90;;;18.40;100.00;99751.56;5027297;28;20482;-76
2023/07/31 09:44:40;;;;;;;8.85;4.53;;;18.10;99.90;;;18.31;100.00;99747.78;5020477;28;20117;-77
2023/07/31 09:47:06;;;;;;;9.40;4.80;;;18.10;99.90;;;17.99;100.00;99749.16;5019171;28;20095;-77
2023/07/31 09:49:32;;;;;;;10.02;4.18;;;18.00;99.90;;;18.29;100.00;99722.41;5014726;28;20046;-77
2023/07/31 09:51:58;;;;;;;7.43;3.58;;;18.10;99.90;;;18.40;100.00;99725.91;5031658;28;20044;-76
2023/07/31 09:54:24;;;;;;;6.97;3.35;;;18.20;99.90;;;18.19;100.00;99728.03;5013775;28;20041;-77
2023/07/31 09:56:49;;;;;;;7.10;3.40;;;18.20;99.90;;;18.40;100.00;99745.22;5027663;28;20033;-76
2023/07/31 09:59:19;;;;;;;5.18;2.78;;;18.20;99.90;;;18.11;100.00;99735.81;5027198;28;20054;-76
2023/07/31 10:01:46;;;;;;;5.57;3.10;;;18.10;99.90;;;18.19;100.00;99717.81;5017599;28;20401;-76
2023/07/31 10:04:13;;;;;;;4.80;2.72;;;18.10;99.90;;;18.13;100.00;99716.22;5023592;28;20037;-76
2023/07/31 10:06:43;;;;;;;6.10;2.80;;;18.00;99.90;;;18.35;100.00;99717.66;5026889;28;20034;-76
2023/07/31 10:09:11;;;;;;;4.50;3.00;;;18.20;99.90;;;18.25;100.00;99735.16;5026319;28;20123;-76